Time;durP1;ratioP1;P1;durP2;ratioP2;P2;SDS_P1;SDS_P2;PMS_P1;PMS_P2;Temp;Humidity;BMP_temperature;BMP_pressure;BME280_temperature;BME280_humidity;BME280_pressure;Samples;Min_cycle;Max_cycle;Signal;HPM_P1;HPM_P2
2021/07/20 00:00:27;;;;;;;45.53;26.75;;;;;;;20.10;85.06;99016.22;130059;1093;22652;-59
2021/07/20 00:02:56;;;;;;;38.85;25.10;;;;;;;20.08;85.35;99007.44;130052;1093;22523;-60
2021/07/20 00:05:27;;;;;;;33.13;24.40;;;;;;;20.08;85.21;99010.20;130025;1092;22554;-62
2021/07/20 00:08:00;;;;;;;32.78;23.85;;;;;;;20.08;85.01;99020.45;130023;1091;22558;-59
2021/07/20 00:10:33;;;;;;;46.20;23.75;;;;;;;20.08;85.23;99012.97;130054;1093;23199;-59
2021/07/20 00:13:03;;;;;;;35.60;21.65;;;;;;;20.06;84.85;99008.91;130003;1092;22535;-59
2021/07/20 00:15:34;;;;;;;40.93;22.70;;;;;;;20.05;84.62;99019.16;130071;1093;22560;-59
2021/07/20 00:18:16;;;;;;;40.95;23.90;;;;;;;20.02;84.30;99008.78;130052;1093;23357;-59
2021/07/20 00:20:45;;;;;;;41.20;24.38;;;;;;;20.01;84.62;99011.88;130060;1092;22515;-59
2021/07/20 00:23:14;;;;;;;41.73;25.05;;;;;;;19.99;84.81;99014.16;130023;1093;22615;-59
2021/07/20 00:25:47;;;;;;;41.35;25.10;;;;;;;20.00;84.67;99010.26;130080;1093;24337;-59
2021/07/20 00:28:19;;;;;;;39.18;23.78;;;;;;;19.99;84.89;99016.93;130032;1093;22612;-60
2021/07/20 00:30:51;;;;;;;36.33;21.98;;;;;;;19.96;84.44;99015.63;130067;1093;22618;-60
2021/07/20 00:33:20;;;;;;;40.78;25.75;;;;;;;19.93;84.04;99009.95;130027;1092;22518;-59
2021/07/20 00:35:53;;;;;;;40.45;25.00;;;;;;;19.93;84.70;99018.24;130080;1092;22533;-59
2021/07/20 00:38:22;;;;;;;34.25;23.28;;;;;;;19.92;84.68;99019.38;130008;1092;23376;-59
2021/07/20 00:40:52;;;;;;;35.95;22.20;;;;;;;19.89;84.61;99026.41;130110;1092;22620;-59
2021/07/20 00:43:21;;;;;;;35.15;22.48;;;;;;;19.89;84.81;99029.18;129979;1093;22590;-59
2021/07/20 00:45:50;;;;;;;36.10;22.38;;;;;;;19.89;84.76;99028.37;130040;1092;22637;-60
2021/07/20 00:48:19;;;;;;;31.93;21.68;;;;;;;19.88;84.79;99027.55;130005;1092;22581;-59
2021/07/20 00:50:51;;;;;;;35.20;23.85;;;;;;;19.88;84.83;99026.74;130044;1092;23949;-63
2021/07/20 00:53:20;;;;;;;35.63;23.75;;;;;;;19.89;84.87;99020.07;130032;1092;22516;-59
2021/07/20 00:55:59;;;;;;;34.95;23.83;;;;;;;19.88;84.98;99016.49;129987;1092;22524;-59
2021/07/20 00:58:29;;;;;;;36.70;23.40;;;;;;;19.87;84.94;99020.41;129790;1092;23587;-60
2021/07/20 01:00:58;;;;;;;30.25;20.60;;;;;;;19.86;85.19;99013.25;130004;1093;23229;-60
2021/07/20 01:03:27;;;;;;;31.63;20.48;;;;;;;19.85;85.00;99013.58;130006;1093;23819;-60
2021/07/20 01:05:57;;;;;;;34.85;20.48;;;;;;;19.82;85.09;99008.70;130025;1093;22583;-60
2021/07/20 01:08:26;;;;;;;32.18;19.95;;;;;;;19.80;84.97;99014.56;129760;1092;22551;-59
2021/07/20 01:10:56;;;;;;;35.48;21.08;;;;;;;19.78;85.00;99014.08;130019;1092;23399;-60
2021/07/20 01:13:27;;;;;;;36.53;22.23;;;;;;;19.76;85.23;99005.33;130074;1093;22545;-60
2021/07/20 01:15:56;;;;;;;33.53;20.23;;;;;;;19.75;85.19;98998.98;130035;1093;23520;-60
2021/07/20 01:18:25;;;;;;;19.70;16.35;;;;;;;19.72;84.85;99002.41;129813;1093;22549;-60
2021/07/20 01:20:57;;;;;;;22.88;16.58;;;;;;;19.71;84.99;98998.02;129807;1093;23494;-59
2021/07/20 01:23:50;;;;;;;24.53;17.93;;;;;;;19.68;84.96;98998.67;129831;1092;23437;-60
2021/07/20 01:26:21;;;;;;;25.40;18.03;;;;;;;19.66;85.00;99005.67;130098;1093;22647;-60
2021/07/20 01:28:53;;;;;;;29.38;20.20;;;;;;;19.65;84.92;99015.09;130098;1092;22660;-59
2021/07/20 01:31:25;;;;;;;29.28;22.03;;;;;;;19.62;85.08;99008.27;130010;1092;22567;-60
2021/07/20 01:34:01;;;;;;;32.85;21.65;;;;;;;19.61;85.01;99011.39;129977;1092;22546;-59
2021/07/20 01:36:32;;;;;;;34.38;21.30;;;;;;;19.59;84.67;99008.14;129817;1093;23587;-60
2021/07/20 01:39:08;;;;;;;38.58;21.95;;;;;;;19.57;85.01;99013.19;129837;1092;22528;-59
2021/07/20 01:41:38;;;;;;;32.28;21.45;;;;;;;19.56;84.74;99012.38;129952;1093;22573;-59
2021/07/20 01:44:11;;;;;;;25.63;18.23;;;;;;;19.55;84.86;99020.98;130016;1093;22512;-59
2021/07/20 01:46:42;;;;;;;34.35;21.33;;;;;;;19.55;85.07;99020.98;129890;1092;22603;-59
2021/07/20 01:49:14;;;;;;;43.23;25.10;;;;;;;19.56;85.15;99028.14;130049;1091;22731;-59
2021/07/20 01:51:46;;;;;;;43.18;26.95;;;;;;;19.57;85.46;99029.77;129712;1093;22565;-60
2021/07/20 01:54:20;;;;;;;40.88;25.13;;;;;;;19.60;85.61;99023.59;130029;1093;22533;-59
2021/07/20 01:56:49;;;;;;;47.23;28.45;;;;;;;19.61;85.98;99020.50;130002;1093;22632;-59
2021/07/20 01:59:21;;;;;;;46.00;28.40;;;;;;;19.65;86.07;99018.67;129921;1092;23365;-59
2021/07/20 02:10:41;;;;;;;37.63;24.85;;;;;;;19.64;85.82;99002.42;129955;1093;23011;-59
2021/07/20 02:13:43;;;;;;;39.45;25.03;;;;;;;19.62;85.77;99001.97;129894;1092;22545;-59
2021/07/20 02:16:34;;;;;;;43.38;25.13;;;;;;;19.60;86.00;99001.48;130018;1092;23338;-59
2021/07/20 02:19:29;;;;;;;33.90;23.27;;;;;;;19.59;85.96;99008.95;130093;1093;23418;-59
2021/07/20 02:22:21;;;;;;;36.83;24.75;;;;;;;19.57;85.87;99013.19;129872;1093;23343;-59
2021/07/20 02:24:51;;;;;;;36.75;24.28;;;;;;;19.56;85.87;99017.91;130446;1087;23303;-60
2021/07/20 02:27:21;;;;;;;40.68;23.85;;;;;;;19.54;85.69;99005.55;130372;1087;23052;-59
2021/07/20 02:30:07;;;;;;;30.00;21.28;;;;;;;19.53;85.43;99009.45;130509;1086;22555;-59
2021/07/20 02:32:37;;;;;;;31.60;23.30;;;;;;;19.52;85.58;99010.59;130422;1087;22616;-59
2021/07/20 02:35:17;;;;;;;32.08;21.35;;;;;;;19.51;85.81;99017.25;130405;1090;22641;-60
2021/07/20 02:37:48;;;;;;;27.08;21.25;;;;;;;19.51;85.83;99023.59;130432;1087;22524;-59
2021/07/20 02:40:18;;;;;;;37.73;22.35;;;;;;;19.53;85.99;99017.73;128106;1087;22826;-59
2021/07/20 02:42:47;;;;;;;32.20;22.18;;;;;;;19.53;85.86;99014.98;130123;1087;23125;-59
2021/07/20 02:45:16;;;;;;;30.38;21.50;;;;;;;19.54;85.77;99025.70;130411;1087;22524;-59
2021/07/20 02:47:47;;;;;;;29.20;22.08;;;;;;;19.54;85.79;99020.18;130406;1087;22520;-59
2021/07/20 02:50:21;;;;;;;31.78;22.85;;;;;;;19.57;86.08;99027.81;130198;1087;23496;-59
2021/07/20 02:52:51;;;;;;;26.63;21.23;;;;;;;19.64;86.51;99024.53;130457;1087;22546;-59
2021/07/20 02:55:25;;;;;;;30.60;22.55;;;;;;;19.70;86.68;99031.52;130434;1087;22559;-60
2021/07/20 02:57:54;;;;;;;28.73;22.25;;;;;;;19.75;86.83;99023.86;130357;1087;23696;-59
2021/07/20 03:00:23;;;;;;;32.78;22.45;;;;;;;19.80;86.62;99025.62;130442;1087;22522;-59
2021/07/20 03:02:56;;;;;;;31.68;22.30;;;;;;;19.85;86.84;99030.16;130425;1087;22550;-59
2021/07/20 03:05:26;;;;;;;30.55;21.60;;;;;;;19.89;86.76;99040.23;130464;1087;22604;-59
2021/07/20 03:07:58;;;;;;;30.40;21.70;;;;;;;19.95;86.77;99040.84;130487;1086;22586;-59
2021/07/20 03:10:29;;;;;;;28.15;23.13;;;;;;;19.99;87.04;99039.86;130144;1090;22534;-59
2021/07/20 03:13:06;;;;;;;38.90;25.80;;;;;;;20.05;86.93;99034.97;130450;1087;22555;-59
2021/07/20 03:15:42;;;;;;;31.20;23.00;;;;;;;20.10;86.58;99029.23;130474;1087;22539;-59
2021/07/20 03:18:13;;;;;;;30.95;22.85;;;;;;;20.13;85.95;99028.58;130464;1086;23594;-59
2021/07/20 03:20:42;;;;;;;23.15;20.68;;;;;;;20.16;85.50;99038.17;130123;1089;22551;-59
2021/07/20 03:23:12;;;;;;;21.53;18.45;;;;;;;20.17;84.95;99018.47;130451;1087;23401;-60
2021/07/20 03:25:43;;;;;;;19.63;16.78;;;;;;;20.20;84.81;99022.53;130352;1087;22524;-59
2021/07/20 03:28:14;;;;;;;23.63;17.93;;;;;;;20.25;84.62;99020.37;130425;1087;22568;-60
2021/07/20 03:30:45;;;;;;;23.88;17.78;;;;;;;20.30;84.34;99024.91;130437;1087;22629;-60
2021/07/20 03:33:16;;;;;;;24.15;18.98;;;;;;;20.34;84.11;99029.42;130402;1087;22567;-59
2021/07/20 03:35:52;;;;;;;21.40;18.03;;;;;;;20.39;83.90;99029.27;130418;1087;22580;-59
2021/07/20 03:38:22;;;;;;;20.73;17.55;;;;;;;20.44;83.50;99022.73;130166;1087;22523;-59
2021/07/20 03:40:58;;;;;;;21.43;16.73;;;;;;;20.51;83.45;99031.30;130324;1087;23216;-60
2021/07/20 03:43:28;;;;;;;20.80;16.65;;;;;;;20.56;82.91;99031.13;130467;1087;22555;-59
2021/07/20 03:45:59;;;;;;;20.23;15.58;;;;;;;20.62;83.01;99029.79;130122;1090;22605;-58
2021/07/20 03:48:33;;;;;;;17.73;14.00;;;;;;;20.70;83.05;99031.67;130460;1088;22576;-59
2021/07/20 03:51:25;;;;;;;19.10;14.43;;;;;;;20.79;82.60;99029.64;130343;1090;23389;-59
2021/07/20 03:53:54;;;;;;;19.45;14.28;;;;;;;20.85;82.26;99030.26;130452;1087;23506;-59
2021/07/20 03:56:23;;;;;;;15.53;13.85;;;;;;;20.89;81.72;99030.40;130435;1087;22532;-59
2021/07/20 03:58:56;;;;;;;15.50;13.90;;;;;;;20.93;81.40;99037.67;130153;1090;22598;-59
2021/07/20 04:01:30;;;;;;;17.33;13.45;;;;;;;20.97;81.14;99038.63;130127;1087;22558;-59
2021/07/20 04:03:59;;;;;;;17.30;13.88;;;;;;;21.01;81.01;99036.81;130461;1087;22609;-59
2021/07/20 04:06:47;;;;;;;15.33;12.78;;;;;;;21.09;81.11;99043.41;130412;1087;22523;-59
2021/07/20 04:09:27;;;;;;;15.95;14.10;;;;;;;21.17;80.72;99039.77;130455;1087;23431;-59
2021/07/20 04:12:09;;;;;;;18.83;14.90;;;;;;;21.26;80.40;99042.48;130423;1087;22571;-59
2021/07/20 04:14:58;;;;;;;19.55;14.98;;;;;;;21.35;80.54;99043.23;130453;1087;22512;-59
2021/07/20 04:17:28;;;;;;;17.98;14.45;;;;;;;21.43;80.30;99050.64;130404;1087;22574;-59
2021/07/20 04:19:57;;;;;;;16.33;13.68;;;;;;;21.50;79.86;99046.14;130446;1087;22533;-59
2021/07/20 04:23:30;;;;;;;16.85;13.70;;;;;;;21.57;79.55;99056.69;125576;1092;22796;-60
2021/07/20 04:26:07;;;;;;;15.37;13.70;;;;;;;21.64;79.58;99058.91;125102;1092;27418;-60
2021/07/20 04:28:39;;;;;;;18.08;14.25;;;;;;;21.73;79.51;99068.75;130074;1092;23718;-60
2021/07/20 04:31:11;;;;;;;18.83;14.53;;;;;;;21.80;79.65;99070.95;130009;1093;22531;-59
2021/07/20 04:33:42;;;;;;;18.95;14.20;;;;;;;21.87;79.88;99060.11;129859;1092;22562;-59
2021/07/20 04:36:31;;;;;;;18.90;14.43;;;;;;;21.96;79.45;99055.27;129807;1092;22676;-59
2021/07/20 04:39:08;;;;;;;19.35;16.03;;;;;;;22.03;79.09;99051.97;129993;1093;22537;-50
2021/07/20 04:41:38;;;;;;;18.48;14.90;;;;;;;22.07;78.33;99050.94;125290;1091;22767;-58
2021/07/20 04:44:08;;;;;;;16.65;15.03;;;;;;;22.12;78.01;99058.20;125251;1091;22796;-58
2021/07/20 04:46:59;;;;;;;21.60;15.70;;;;;;;22.16;77.96;99046.08;125061;1093;22981;-61
2021/07/20 04:49:28;;;;;;;19.68;15.50;;;;;;;22.18;77.66;99048.51;129835;1092;23419;-60
2021/07/20 04:51:59;;;;;;;19.35;14.55;;;;;;;22.19;77.49;99045.39;130040;1093;22515;-60
2021/07/20 04:54:28;;;;;;;19.03;15.80;;;;;;;22.22;77.68;99043.86;129736;1093;23292;-59
2021/07/20 04:56:59;;;;;;;19.13;15.58;;;;;;;22.25;77.73;99047.92;129775;1093;23512;-58
2021/07/20 04:59:31;;;;;;;20.33;16.08;;;;;;;22.28;77.51;99039.71;129675;1093;23626;-58
2021/07/20 05:02:00;;;;;;;18.48;16.43;;;;;;;22.32;77.63;99050.94;129707;1093;22598;-58
2021/07/20 05:04:36;;;;;;;23.33;17.73;;;;;;;22.38;77.95;99041.20;129668;1092;22581;-59
2021/07/20 05:07:06;;;;;;;19.75;16.45;;;;;;;22.46;77.87;99045.84;129701;1095;22700;-60
2021/07/20 05:09:35;;;;;;;21.85;15.90;;;;;;;22.55;78.13;99052.07;129365;1096;23077;-59
2021/07/20 05:12:08;;;;;;;16.05;14.38;;;;;;;22.68;78.12;99052.86;129422;1096;22557;-59
2021/07/20 05:14:41;;;;;;;16.73;15.03;;;;;;;22.82;78.07;99059.69;129691;1096;22591;-59
2021/07/20 05:17:31;;;;;;;16.40;14.23;;;;;;;23.03;77.64;99053.98;129666;1096;22544;-59
2021/07/20 05:20:02;;;;;;;18.95;15.78;;;;;;;23.21;76.80;99058.09;129680;1095;23439;-59
2021/07/20 05:22:44;;;;;;;17.83;14.83;;;;;;;23.47;76.64;99057.64;129464;1096;22611;-59
2021/07/20 05:25:15;;;;;;;18.83;15.05;;;;;;;23.74;75.59;99057.98;129663;1093;22608;-60
2021/07/20 05:27:45;;;;;;;19.10;14.60;;;;;;;24.03;74.33;99054.78;129722;1093;22556;-59
2021/07/20 05:30:16;;;;;;;17.50;12.58;;;;;;;24.34;73.71;99054.00;129666;1093;22578;-59
2021/07/20 05:32:46;;;;;;;15.53;12.98;;;;;;;24.67;72.35;99056.38;129696;1092;22736;-60
2021/07/20 05:35:19;;;;;;;15.50;13.63;;;;;;;24.96;71.31;99055.85;129658;1093;23754;-59
2021/07/20 05:37:48;;;;;;;16.25;13.18;;;;;;;25.15;70.13;99052.28;129731;1093;22638;-59
2021/07/20 05:40:19;;;;;;;21.10;12.43;;;;;;;25.34;70.13;99046.71;129608;1093;22568;-59
2021/07/20 05:42:50;;;;;;;19.75;13.43;;;;;;;25.56;68.93;99047.92;129705;1093;22720;-62
2021/07/20 05:45:27;;;;;;;16.05;12.53;;;;;;;25.62;67.47;99056.84;129764;1093;23300;-60
2021/07/20 05:47:58;;;;;;;14.40;12.25;;;;;;;25.50;67.60;99056.98;129817;1092;22547;-60
2021/07/20 05:50:28;;;;;;;14.98;12.33;;;;;;;25.49;67.58;99053.38;129851;1092;22969;-60
2021/07/20 05:53:33;;;;;;;15.65;12.20;;;;;;;25.48;67.59;99057.34;129882;1093;22612;-60
2021/07/20 05:56:33;;;;;;;13.98;11.93;;;;;;;25.45;67.67;99055.28;129742;1092;24076;-60
2021/07/20 05:59:11;;;;;;;14.10;11.85;;;;;;;25.41;67.84;99053.59;129878;1093;22572;-60
2021/07/20 06:01:41;;;;;;;16.58;11.98;;;;;;;25.42;67.38;99047.64;129820;1093;22530;-60
2021/07/20 06:04:11;;;;;;;13.58;11.90;;;;;;;25.42;66.90;99055.20;129867;1093;22534;-60
2021/07/20 06:06:40;;;;;;;14.15;12.03;;;;;;;25.44;67.94;99052.86;129831;1092;22570;-60
2021/07/20 06:09:09;;;;;;;16.35;11.60;;;;;;;25.50;67.54;99051.40;129874;1092;22587;-60
2021/07/20 06:11:39;;;;;;;13.65;12.25;;;;;;;25.59;67.59;99049.98;129813;1092;22562;-60
2021/07/20 06:14:09;;;;;;;16.55;12.55;;;;;;;25.70;66.58;99047.42;129829;1093;23367;-60
2021/07/20 06:16:39;;;;;;;14.73;12.03;;;;;;;25.76;66.49;99045.95;129750;1092;23561;-60
2021/07/20 06:19:08;;;;;;;17.88;12.65;;;;;;;25.78;66.16;99049.18;129846;1092;22544;-60
2021/07/20 06:21:40;;;;;;;18.88;12.93;;;;;;;25.77;65.57;99036.40;130029;1092;22558;-60
2021/07/20 06:24:09;;;;;;;17.38;12.33;;;;;;;25.75;66.16;99029.57;129879;1093;23670;-60
2021/07/20 06:26:40;;;;;;;17.85;14.05;;;;;;;25.71;65.96;99033.09;129832;1093;23119;-60
2021/07/20 06:29:09;;;;;;;20.80;14.08;;;;;;;25.62;66.21;99023.36;129858;1093;22559;-61
2021/07/20 06:31:42;;;;;;;14.75;12.98;;;;;;;25.52;66.87;99027.54;129850;1093;22607;-61
2021/07/20 06:34:14;;;;;;;19.33;13.78;;;;;;;25.48;66.42;99032.23;130097;1093;22536;-61
2021/07/20 06:36:43;;;;;;;21.23;14.80;;;;;;;25.40;66.57;99027.67;129776;1093;22563;-61
2021/07/20 06:39:13;;;;;;;20.20;12.93;;;;;;;25.35;66.99;99028.00;129904;1093;22517;-61
2021/07/20 06:41:41;;;;;;;16.38;12.43;;;;;;;25.34;67.40;99031.96;130072;1091;22588;-61
2021/07/20 06:44:10;;;;;;;17.58;14.38;;;;;;;25.34;66.90;99031.96;130072;1092;23433;-61
2021/07/20 06:46:40;;;;;;;21.98;14.30;;;;;;;25.33;67.00;99035.92;129839;1092;22566;-61
2021/07/20 06:49:09;;;;;;;15.65;13.53;;;;;;;25.30;67.17;99048.61;129831;1092;23359;-61
2021/07/20 06:51:38;;;;;;;15.45;13.33;;;;;;;25.28;66.41;99045.38;129824;1093;23281;-61
2021/07/20 06:54:07;;;;;;;15.48;12.98;;;;;;;25.24;66.72;99047.31;129806;1093;22498;-62
2021/07/20 06:56:46;;;;;;;16.70;12.65;;;;;;;25.25;66.48;99048.09;130118;1092;22564;-61
2021/07/20 06:59:15;;;;;;;17.88;12.85;;;;;;;25.24;66.66;99050.09;129854;1092;22541;-61
2021/07/20 07:01:44;;;;;;;16.18;11.88;;;;;;;25.26;65.91;99058.07;130102;1092;23254;-61
2021/07/20 07:04:33;;;;;;;17.78;13.20;;;;;;;25.26;65.98;99061.67;129790;1093;22555;-61
2021/07/20 07:07:02;;;;;;;13.40;11.98;;;;;;;25.25;65.43;99056.45;129866;1093;22569;-62
2021/07/20 07:09:32;;;;;;;16.23;13.28;;;;;;;25.23;65.69;99058.83;129837;1093;23351;-60
2021/07/20 07:12:01;;;;;;;15.23;12.98;;;;;;;25.23;65.44;99053.25;130083;1092;22636;-63
2021/07/20 07:14:30;;;;;;;17.35;13.08;;;;;;;25.24;65.94;99058.47;129835;1093;23295;-62
2021/07/20 07:17:03;;;;;;;15.53;12.65;;;;;;;25.24;66.06;99058.47;129841;1093;22530;-62
2021/07/20 07:19:32;;;;;;;16.03;12.05;;;;;;;25.25;65.46;99060.05;129793;1093;22527;-62
2021/07/20 07:22:01;;;;;;;15.70;11.90;;;;;;;25.28;65.46;99058.52;129872;1093;22642;-60
2021/07/20 07:24:30;;;;;;;12.63;11.20;;;;;;;25.32;65.13;99059.41;129801;1093;23494;-62
2021/07/20 07:27:00;;;;;;;12.58;11.28;;;;;;;25.33;64.70;99049.86;129858;1093;23316;-59
2021/07/20 07:29:29;;;;;;;14.28;12.95;;;;;;;25.32;64.86;99043.48;129801;1093;23326;-60
2021/07/20 07:31:57;;;;;;;16.68;13.25;;;;;;;25.30;64.81;99054.19;129842;1092;22553;-59
2021/07/20 07:34:26;;;;;;;16.23;11.98;;;;;;;25.28;64.68;99047.36;129759;1093;22550;-59
2021/07/20 07:36:55;;;;;;;19.85;12.95;;;;;;;25.27;64.83;99043.77;129851;1092;22524;-60
2021/07/20 07:39:24;;;;;;;17.03;11.25;;;;;;;25.30;65.55;99040.25;129190;1092;22813;-59
2021/07/20 07:41:57;;;;;;;18.73;12.17;;;;;;;25.37;65.19;99042.38;129909;1093;22632;-59
2021/07/20 07:44:26;;;;;;;14.48;12.68;;;;;;;25.43;65.49;99037.30;129793;1093;23422;-59
2021/07/20 07:46:55;;;;;;;16.78;13.55;;;;;;;25.48;66.09;99037.01;129836;1092;23337;-59
2021/07/20 07:49:26;;;;;;;14.98;13.00;;;;;;;25.55;66.41;99026.78;129839;1092;22628;-59
2021/07/20 07:51:55;;;;;;;19.83;13.23;;;;;;;25.61;65.45;99042.08;130134;1093;22547;-59
2021/07/20 07:54:24;;;;;;;24.40;14.25;;;;;;;25.65;65.35;99044.95;129838;1093;22564;-60
2021/07/20 07:56:53;;;;;;;18.78;12.90;;;;;;;25.64;65.45;99044.14;129838;1092;22560;-61
2021/07/20 07:59:23;;;;;;;17.18;13.53;;;;;;;25.64;64.72;99032.17;130065;1092;23672;-60
2021/07/20 08:01:52;;;;;;;15.70;12.58;;;;;;;25.60;65.37;99029.28;129817;1093;22642;-60
2021/07/20 08:04:26;;;;;;;17.45;11.73;;;;;;;25.70;65.12;99031.48;129799;1092;22558;-60
2021/07/20 08:07:01;;;;;;;15.55;12.05;;;;;;;25.76;64.37;99031.19;129839;1093;23147;-60
2021/07/20 08:09:30;;;;;;;16.00;12.55;;;;;;;25.80;64.70;99032.06;129881;1092;22579;-60
2021/07/20 08:12:00;;;;;;;14.50;10.88;;;;;;;25.85;62.69;99031.73;129849;1093;22550;-60
2021/07/20 08:14:29;;;;;;;12.85;10.60;;;;;;;25.91;62.45;99030.27;130093;1092;22607;-60
2021/07/20 08:16:59;;;;;;;19.75;12.15;;;;;;;26.00;62.84;99044.77;130063;1093;22672;-59
2021/07/20 08:19:31;;;;;;;16.33;10.38;;;;;;;26.09;62.73;99039.77;130440;1087;23332;-59
2021/07/20 08:22:01;;;;;;;14.08;10.40;;;;;;;26.18;62.61;99047.88;130443;1087;22656;-59
2021/07/20 08:24:34;;;;;;;11.93;10.80;;;;;;;26.20;61.81;99051.11;130510;1088;22632;-59
2021/07/20 08:27:26;;;;;;;15.63;10.67;;;;;;;26.17;61.61;99052.66;130423;1087;22546;-59
2021/07/20 08:29:59;;;;;;;15.10;10.13;;;;;;;26.20;61.09;99051.11;130451;1087;22550;-60
2021/07/20 08:32:31;;;;;;;12.85;10.90;;;;;;;26.24;61.75;99055.58;130452;1087;22546;-59
2021/07/20 08:35:04;;;;;;;12.50;10.13;;;;;;;26.29;60.84;99051.67;130460;1087;22543;-59
2021/07/20 08:37:52;;;;;;;13.55;10.75;;;;;;;26.33;60.85;99044.17;130429;1087;22535;-59
2021/07/20 08:40:23;;;;;;;15.65;9.80;;;;;;;26.37;59.81;99048.64;130474;1087;22575;-60
2021/07/20 08:43:05;;;;;;;13.93;10.93;;;;;;;26.39;59.58;99040.70;130442;1087;22623;-59
2021/07/20 08:45:35;;;;;;;13.03;10.70;;;;;;;26.35;59.44;99039.02;130487;1087;22550;-59
2021/07/20 08:48:15;;;;;;;12.78;9.90;;;;;;;26.32;59.25;99034.17;130488;1086;23146;-59
2021/07/20 08:50:45;;;;;;;10.70;9.23;;;;;;;26.31;58.36;99041.74;130528;1087;22498;-59
2021/07/20 08:53:33;;;;;;;15.75;8.63;;;;;;;26.32;58.02;99032.19;130470;1087;23558;-59
2021/07/20 08:56:02;;;;;;;14.15;9.65;;;;;;;26.36;58.40;99037.84;130510;1087;23102;-59
2021/07/20 08:58:43;;;;;;;12.78;10.25;;;;;;;26.38;58.75;99030.70;130456;1087;22529;-60
2021/07/20 09:01:17;;;;;;;14.63;9.28;;;;;;;26.46;58.03;99026.02;130449;1087;22531;-60
2021/07/20 09:04:02;;;;;;;14.58;9.28;;;;;;;26.51;59.02;99022.10;130426;1087;22548;-59
2021/07/20 09:06:41;;;;;;;15.88;9.50;;;;;;;26.55;58.56;99020.95;130470;1087;22575;-59
2021/07/20 09:09:14;;;;;;;12.83;10.58;;;;;;;26.60;57.73;99014.24;130393;1087;22628;-59
2021/07/20 09:12:12;;;;;;;14.28;9.30;;;;;;;26.65;58.53;99016.72;130428;1087;22539;-60
2021/07/20 09:15:04;;;;;;;9.73;8.73;;;;;;;26.71;57.72;99010.41;130447;1087;22533;-60
2021/07/20 09:17:47;;;;;;;11.85;9.33;;;;;;;26.81;58.09;99003.38;130398;1087;22634;-59
2021/07/20 09:20:27;;;;;;;12.10;9.73;;;;;;;26.90;57.57;99003.89;130151;1087;23129;-60
2021/07/20 09:22:58;;;;;;;12.75;9.83;;;;;;;26.99;56.53;99001.63;130395;1087;22598;-60
2021/07/20 09:25:35;;;;;;;9.78;8.55;;;;;;;27.05;56.19;99011.30;130414;1087;22550;-60
2021/07/20 09:28:13;;;;;;;15.63;10.73;;;;;;;27.10;56.55;98998.98;130405;1087;22525;-60
2021/07/20 09:30:46;;;;;;;10.18;8.63;;;;;;;27.15;56.93;99001.42;130478;1085;22510;-59
2021/07/20 09:33:15;;;;;;;10.63;8.50;;;;;;;27.20;55.56;99006.69;130443;1087;22575;-60
2021/07/20 09:36:10;;;;;;;13.48;9.73;;;;;;;27.23;55.11;98993.94;130483;1086;22552;-59
2021/07/20 09:38:58;;;;;;;11.90;9.33;;;;;;;27.23;55.41;98996.73;130406;1087;22540;-59
2021/07/20 09:41:33;;;;;;;11.88;10.63;;;;;;;27.20;55.65;98991.91;130508;1086;22520;-60
2021/07/20 09:44:22;;;;;;;12.30;10.20;;;;;;;27.19;55.18;98984.69;130430;1085;22549;-59
2021/07/20 09:46:53;;;;;;;12.03;9.68;;;;;;;27.13;55.18;98980.61;130478;1087;22561;-59
2021/07/20 09:49:33;;;;;;;16.83;10.63;;;;;;;27.05;56.04;98988.13;130475;1086;22635;-59
2021/07/20 09:52:13;;;;;;;15.15;9.95;;;;;;;26.98;55.42;98986.03;130456;1087;22550;-59
2021/07/20 09:55:07;;;;;;;16.53;10.50;;;;;;;26.90;56.16;98991.89;130413;1085;22516;-59
2021/07/20 09:57:45;;;;;;;15.88;10.13;;;;;;;26.84;55.91;98991.41;130470;1086;23690;-59
2021/07/20 10:00:21;;;;;;;15.20;9.65;;;;;;;26.80;55.10;98981.39;130452;1086;22530;-60
2021/07/20 10:03:19;;;;;;;11.78;9.78;;;;;;;26.78;55.80;98983.75;130424;1087;22490;-60
2021/07/20 10:05:54;;;;;;;10.33;9.28;;;;;;;26.78;56.28;98978.97;130387;1087;22538;-59
2021/07/20 10:08:32;;;;;;;12.48;9.60;;;;;;;26.80;57.25;98965.42;130472;1087;22568;-59
2021/07/20 10:11:17;;;;;;;15.28;10.50;;;;;;;26.85;57.56;98962.27;130442;1087;23392;-60
2021/07/20 10:14:16;;;;;;;16.73;10.00;;;;;;;26.92;57.05;98970.77;130472;1087;22642;-60
2021/07/20 10:17:04;;;;;;;13.83;10.33;;;;;;;26.99;56.76;98961.67;130484;1087;22598;-60
2021/07/20 10:19:45;;;;;;;11.43;9.95;;;;;;;27.05;56.48;98965.75;130495;1085;22583;-60
2021/07/20 10:22:15;;;;;;;10.05;8.95;;;;;;;27.13;56.82;98956.25;130482;1087;22571;-60
2021/07/20 10:25:00;;;;;;;14.33;8.65;;;;;;;27.21;55.09;98948.76;130299;1086;23724;-60
2021/07/20 10:27:45;;;;;;;13.60;9.93;;;;;;;27.28;55.78;98948.82;130449;1087;23641;-61
2021/07/20 10:30:14;;;;;;;11.08;9.98;;;;;;;27.32;55.93;98949.67;130430;1085;22508;-61
2021/07/20 10:32:52;;;;;;;12.53;9.58;;;;;;;27.35;55.60;98948.91;130399;1087;22557;-61
2021/07/20 10:35:39;;;;;;;12.53;9.75;;;;;;;27.37;55.47;98943.73;130403;1086;22552;-60
2021/07/20 10:38:11;;;;;;;10.40;9.38;;;;;;;27.37;55.23;98954.93;130412;1087;22571;-60
2021/07/20 10:40:40;;;;;;;15.70;9.35;;;;;;;27.37;55.83;98950.14;130401;1087;22587;-60
2021/07/20 10:43:32;;;;;;;13.10;9.25;;;;;;;27.39;55.12;98947.77;130430;1087;22621;-60
2021/07/20 10:46:03;;;;;;;15.28;10.03;;;;;;;27.42;55.16;98954.56;130405;1087;22562;-61
2021/07/20 10:48:37;;;;;;;13.65;8.95;;;;;;;27.46;54.26;98947.02;130442;1087;22545;-62
2021/07/20 10:51:10;;;;;;;10.73;9.58;;;;;;;27.50;54.33;98945.07;130441;1086;22564;-61
2021/07/20 10:53:57;;;;;;;12.75;10.23;;;;;;;27.52;54.42;98942.70;130449;1085;22614;-59
2021/07/20 10:56:41;;;;;;;11.83;9.43;;;;;;;27.52;54.83;98937.09;130429;1087;23475;-59
2021/07/20 10:59:18;;;;;;;11.08;9.70;;;;;;;27.53;54.67;98941.51;130475;1085;23082;-59
2021/07/20 11:02:23;;;;;;;11.40;8.98;;;;;;;27.55;55.31;98941.93;130387;1087;23773;-59
2021/07/20 11:04:53;;;;;;;11.25;9.03;;;;;;;27.56;54.84;98940.74;130039;1090;22599;-59
2021/07/20 11:07:26;;;;;;;16.50;9.30;;;;;;;27.52;55.20;98945.49;129992;1090;25498;-59
2021/07/20 11:09:59;;;;;;;12.93;9.48;;;;;;;27.48;54.47;98938.24;130026;1090;22556;-59
2021/07/20 11:12:28;;;;;;;12.70;9.00;;;;;;;27.44;55.64;98944.60;129997;1090;22656;-60
2021/07/20 11:14:57;;;;;;;14.63;9.65;;;;;;;27.43;55.26;98939.39;130078;1090;22595;-60
2021/07/20 11:17:26;;;;;;;12.90;8.95;;;;;;;27.44;55.49;98936.20;130023;1089;22564;-60
2021/07/20 11:19:55;;;;;;;11.08;9.60;;;;;;;27.45;54.60;98934.22;130003;1090;22563;-60
2021/07/20 11:22:25;;;;;;;10.65;8.48;;;;;;;27.45;55.21;98935.02;129987;1090;22564;-60
2021/07/20 11:24:53;;;;;;;17.33;9.55;;;;;;;27.46;54.33;98933.03;130040;1090;22566;-60
2021/07/20 11:27:22;;;;;;;11.60;8.10;;;;;;;27.46;55.21;98924.63;130014;1089;22604;-60
2021/07/20 11:29:51;;;;;;;9.95;8.60;;;;;;;27.44;54.65;98927.81;130001;1090;22546;-60
2021/07/20 11:32:23;;;;;;;12.85;8.43;;;;;;;27.41;55.15;98917.38;130060;1090;22575;-60
2021/07/20 11:34:57;;;;;;;13.10;9.30;;;;;;;27.38;56.18;98922.97;130031;1090;22586;-60
2021/07/20 11:37:35;;;;;;;9.90;8.73;;;;;;;27.32;55.66;98914.11;130045;1090;22612;-59
2021/07/20 11:40:07;;;;;;;12.65;9.48;;;;;;;27.27;55.78;98917.24;128077;1090;22830;-59
2021/07/20 11:42:49;;;;;;;14.40;9.35;;;;;;;27.19;55.86;98923.97;130337;1087;22525;-60
2021/07/20 11:45:18;;;;;;;18.10;10.35;;;;;;;27.12;56.62;98918.31;130471;1086;22994;-60
2021/07/20 11:48:06;;;;;;;29.13;12.88;;;;;;;26.98;59.26;98918.92;130387;1087;22612;-60
2021/07/20 11:51:04;;;;;;;30.73;13.03;;;;;;;26.70;62.38;98933.34;130437;1087;22514;-60
2021/07/20 11:54:02;;;;;;;26.00;12.95;;;;;;;26.25;63.65;98953.86;130443;1087;23384;-60